11 a 20/11 - T normales a cálidas C y N, patrón activo gran parte del país y luego cuña

Avatar de Usuario
juan_aae
Mensajes: 197
Registrado: Mié Sep 03, 2014 10:32 pm
Ubicación: Río Cuarto, Córdoba
Contactar:

Re: 11 a 20/11 - T normales a cálidas C y N, patrón activo en gran parte del país

Mensaje por juan_aae » Mar Nov 12, 2019 1:21 pm

Imagen

Alta Gracia. Granizando chico en esa ciudad, al igual que Anisacate, Villa Los Aromos y Costa Azul.
Me pidió tiempo. Le dije "Cubierto con tormenta. 22°C"

Avatar de Usuario
Ezequiel95
Mensajes: 9049
Registrado: Jue Dic 10, 2015 12:33 pm
Ubicación: Merlo, Buenos Aires
Contactar:

Re: 11 a 20/11 - T normales a cálidas C y N, patrón activo en gran parte del país

Mensaje por Ezequiel95 » Mar Nov 12, 2019 1:23 pm

Hay muchos CU por acá. Algunos pocos congelan.

Avatar de Usuario
Diecha
Mensajes: 14769
Registrado: Jue Ago 25, 2011 9:31 pm
Ubicación: Lomas de Zamora

Re: 11 a 20/11 - T normales a cálidas C y N, patrón activo en gran parte del país

Mensaje por Diecha » Mar Nov 12, 2019 1:23 pm


Avatar de Usuario
Ernest
Mensajes: 12022
Registrado: Vie Jul 17, 2009 10:54 pm
Ubicación: Balvanera, CABA

Re: 11 a 20/11 - T normales a cálidas C y N, patrón activo en gran parte del país

Mensaje por Ernest » Mar Nov 12, 2019 1:24 pm

Santiago Linari escribió:Con lo de anoche Mza Aero acumuló 10 mm y Mza Observatorio 3 mm. Al parecer lo más intenso de la celda pasó entre estas dos estaciones, y ninguna ligó lo más fuerte.
Qué golazo sería una buena red de observadores con pluviómetros privados como existe en el AMBA pero para Mendoza City y su entorno... Sin duda alguna se verían cosas muy locas.

A todo esto, Steve Nesbitt les dedicó un tweet a las tormentas de ayer en la provincia.
Did you want to talk about the weather, or were you just making chitchat?

Twitter: @ErnestoMeteo

Avatar de Usuario
Diecha
Mensajes: 14769
Registrado: Jue Ago 25, 2011 9:31 pm
Ubicación: Lomas de Zamora

Re: 11 a 20/11 - T normales a cálidas C y N, patrón activo en gran parte del país

Mensaje por Diecha » Mar Nov 12, 2019 1:31 pm

Imagen

Imagen
Spoiler
Mostrar
Imagen
Imagen
Imagen
Imagen
Imagen
Imagen
Imagen
Imagen
Imagen
Imagen
Imagen
Imagen
Imagen

Juangonzalez_24
Mensajes: 52
Registrado: Mié May 25, 2016 8:58 pm

Re: 11 a 20/11 - T normales a cálidas C y N, patrón activo en gran parte del país

Mensaje por Juangonzalez_24 » Mar Nov 12, 2019 2:09 pm

Hermoso día en San Carlos de Bariloche. Se ve mucha nieve en cotas altas
Adjuntos
20191112_140658.jpg

Avatar de Usuario
Diecha
Mensajes: 14769
Registrado: Jue Ago 25, 2011 9:31 pm
Ubicación: Lomas de Zamora

Re: 11 a 20/11 - T normales a cálidas C y N, patrón activo en gran parte del país

Mensaje por Diecha » Mar Nov 12, 2019 2:17 pm

Sur de Córdoba Capital:
Imagen


- Córdoba 14 hs: SACO 121700Z 03011KT 010V070 9999 VCSH SCT045 FEW050CB 31/20 Q1009
- Río Cuarto 14 hs: SAOC 121700Z 09008KT 9999 FEW040 FEW045CB 23/19 Q1011 RMK ESTIMATED WIND / CB OBS TO SE

Imagen
Imagen
Imagen

Avatar de Usuario
Diecha
Mensajes: 14769
Registrado: Jue Ago 25, 2011 9:31 pm
Ubicación: Lomas de Zamora

Re: 11 a 20/11 - T normales a cálidas C y N, patrón activo en gran parte del país

Mensaje por Diecha » Mar Nov 12, 2019 2:48 pm

- Córdoba 14:26 hs: SACO 121726Z 04006KT 9999 VCTS SCT045 SCT050CB 29/18 Q1009

Imagen

Avatar de Usuario
pupy
Mensajes: 2534
Registrado: Mar Mar 02, 2010 7:15 pm
Ubicación: Cordoba capital

Re: 11 a 20/11 - T normales a cálidas C y N, patrón activo en gran parte del país

Mensaje por pupy » Mar Nov 12, 2019 2:50 pm

LLueve suave por cordoba capital zona NO !!!! bajo la T .

EDIT: moderado a fuerte !!!! :o
Última edición por pupy el Mar Nov 12, 2019 3:21 pm, editado 1 vez en total.

Avatar de Usuario
Diecha
Mensajes: 14769
Registrado: Jue Ago 25, 2011 9:31 pm
Ubicación: Lomas de Zamora

Re: 11 a 20/11 - T normales a cálidas C y N, patrón activo en gran parte del país

Mensaje por Diecha » Mar Nov 12, 2019 2:51 pm


Responder